Time;durP1;ratioP1;P1;durP2;ratioP2;P2;SDS_P1;SDS_P2;PMS_P1;PMS_P2;Temp;Humidity;BMP_temperature;BMP_pressure;BME280_temperature;BME280_humidity;BME280_pressure;Samples;Min_cycle;Max_cycle;Signal;HPM_P1;HPM_P2
2022/03/11 00:00:16;;;;;;;;;;;22.70;43.30;;;;;;6324047;27;19931;-52
2022/03/11 00:03:20;;;;;;;;;;;22.30;43.50;;;;;;6319586;27;19923;-53
2022/03/11 00:06:22;;;;;;;;;;;22.30;43.40;;;;;;6320027;27;19950;-49
2022/03/11 00:09:24;;;;;;;;;;;22.70;42.90;;;;;;6317970;27;19931;-53
2022/03/11 00:12:25;;;;;;;;;;;22.70;43.80;;;;;;6321790;27;19931;-55
2022/03/11 00:15:27;;;;;;;;;;;22.10;43.10;;;;;;6322338;27;19969;-50
2022/03/11 00:18:28;;;;;;;;;;;22.50;43.50;;;;;;6322230;27;20802;-51
2022/03/11 00:21:30;;;;;;;;;;;22.10;43.20;;;;;;6324872;27;20722;-53
2022/03/11 00:24:32;;;;;;;;;;;22.60;43.80;;;;;;6322873;27;19931;-49
2022/03/11 00:27:33;;;;;;;;;;;22.10;43.20;;;;;;6322112;27;20242;-52
2022/03/11 00:30:34;;;;;;;;;;;22.30;43.90;;;;;;6322125;27;20014;-53
2022/03/11 00:33:36;;;;;;;;;;;22.10;43.40;;;;;;6321145;27;21686;-52
2022/03/11 00:36:38;;;;;;;;;;;22.50;43.40;;;;;;6324342;27;20904;-50
2022/03/11 00:39:39;;;;;;;;;;;22.50;43.10;;;;;;6317762;27;20164;-51
2022/03/11 00:42:41;;;;;;;;;;;22.40;43.30;;;;;;6326176;27;19931;-52
2022/03/11 00:45:42;;;;;;;;;;;22.20;43.40;;;;;;6325139;27;19934;-52
2022/03/11 00:48:43;;;;;;;;;;;22.30;43.40;;;;;;6303466;27;19989;-50
2022/03/11 00:51:48;;;;;;;;;;;22.50;43.50;;;;;;6326759;27;19927;-50
2022/03/11 00:54:49;;;;;;;;;;;22.10;43.30;;;;;;6322196;27;19931;-52
2022/03/11 00:57:51;;;;;;;;;;;22.40;43.60;;;;;;6325818;27;20037;-55
2022/03/11 01:00:52;;;;;;;;;;;22.50;43.10;;;;;;6324228;27;20021;-52
2022/03/11 01:03:54;;;;;;;;;;;22.50;43.00;;;;;;6329696;27;20033;-52
2022/03/11 01:06:56;;;;;;;;;;;21.80;43.20;;;;;;6329880;27;19931;-50
2022/03/11 01:09:57;;;;;;;;;;;22.40;43.20;;;;;;6329886;27;19958;-53
2022/03/11 01:12:59;;;;;;;;;;;22.10;43.30;;;;;;6325174;27;19932;-54
2022/03/11 01:16:00;;;;;;;;;;;22.00;43.40;;;;;;6328529;27;19966;-53
2022/03/11 01:19:02;;;;;;;;;;;22.30;43.60;;;;;;6326336;27;20038;-52
2022/03/11 01:22:04;;;;;;;;;;;22.10;43.30;;;;;;6310153;27;20054;-55
2022/03/11 01:25:06;;;;;;;;;;;22.10;43.30;;;;;;6331073;27;20653;-50
2022/03/11 01:28:07;;;;;;;;;;;22.00;43.30;;;;;;6328679;27;19951;-54
2022/03/11 01:31:11;;;;;;;;;;;22.10;43.20;;;;;;6329213;27;19931;-49
2022/03/11 01:34:13;;;;;;;;;;;22.00;43.50;;;;;;6332933;27;20188;-53
2022/03/11 01:37:15;;;;;;;;;;;22.30;43.20;;;;;;6332439;27;20801;-53
2022/03/11 01:40:17;;;;;;;;;;;22.30;43.20;;;;;;6328939;27;20791;-49
2022/03/11 01:43:18;;;;;;;;;;;22.30;43.60;;;;;;6324020;27;20773;-54
2022/03/11 01:46:20;;;;;;;;;;;22.70;43.60;;;;;;6311061;27;20026;-52
2022/03/11 01:49:22;;;;;;;;;;;22.10;43.70;;;;;;6328599;27;19930;-52
2022/03/11 01:52:24;;;;;;;;;;;22.00;43.40;;;;;;6328885;27;20137;-51
2022/03/11 01:55:25;;;;;;;;;;;21.90;43.40;;;;;;6324874;27;19934;-49
2022/03/11 01:58:28;;;;;;;;;;;22.00;43.20;;;;;;6328091;27;20054;-49
2022/03/11 02:01:29;;;;;;;;;;;22.20;43.30;;;;;;6325523;27;20577;-49
2022/03/11 02:04:32;;;;;;;;;;;22.30;43.20;;;;;;6305192;27;19995;-47
2022/03/11 02:07:34;;;;;;;;;;;22.00;43.40;;;;;;6307328;27;20087;-53
2022/03/11 02:10:35;;;;;;;;;;;22.30;43.50;;;;;;6323423;27;20820;-51
2022/03/11 02:13:45;;;;;;;;;;;22.20;43.50;;;;;;6324651;27;19931;-50
2022/03/11 02:16:46;;;;;;;;;;;22.50;44.00;;;;;;6307791;27;20755;-49
2022/03/11 02:19:47;;;;;;;;;;;22.30;43.60;;;;;;6324824;27;19931;-48
2022/03/11 02:22:50;;;;;;;;;;;22.10;43.40;;;;;;6328126;27;19960;-53
2022/03/11 02:25:52;;;;;;;;;;;22.20;43.40;;;;;;6309036;27;20034;-52
2022/03/11 02:28:55;;;;;;;;;;;22.10;43.10;;;;;;6330346;27;20755;-50
2022/03/11 02:31:56;;;;;;;;;;;22.30;43.50;;;;;;6325932;27;20760;-55
2022/03/11 02:34:58;;;;;;;;;;;22.40;43.70;;;;;;6329761;27;19929;-51
2022/03/11 02:38:00;;;;;;;;;;;21.90;43.40;;;;;;6327400;27;19931;-52
2022/03/11 02:41:02;;;;;;;;;;;22.50;43.70;;;;;;6327762;27;19983;-52
2022/03/11 02:44:04;;;;;;;;;;;22.00;43.10;;;;;;6328166;27;20100;-52
2022/03/11 02:47:06;;;;;;;;;;;22.00;43.30;;;;;;6325787;27;19934;-53
2022/03/11 02:50:08;;;;;;;;;;;22.00;43.50;;;;;;6328963;27;19934;-48
2022/03/11 02:53:09;;;;;;;;;;;21.90;43.30;;;;;;6329714;27;19931;-52
2022/03/11 02:56:12;;;;;;;;;;;22.10;43.40;;;;;;6328175;27;20022;-46
2022/03/11 02:59:13;;;;;;;;;;;22.40;43.30;;;;;;6310685;27;20058;-47
2022/03/11 03:02:14;;;;;;;;;;;22.00;43.00;;;;;;6328405;27;19991;-48
2022/03/11 03:05:17;;;;;;;;;;;21.90;43.40;;;;;;6330024;27;19978;-51
2022/03/11 03:08:18;;;;;;;;;;;22.00;43.30;;;;;;6321539;27;19963;-54
2022/03/11 03:11:20;;;;;;;;;;;22.00;43.30;;;;;;6331379;27;21116;-50
2022/03/11 03:14:22;;;;;;;;;;;22.60;43.50;;;;;;6329380;27;20020;-50
2022/03/11 03:17:23;;;;;;;;;;;22.50;43.70;;;;;;6333467;27;20053;-50
2022/03/11 03:20:25;;;;;;;;;;;22.20;43.50;;;;;;6332362;27;20038;-50
2022/03/11 03:23:27;;;;;;;;;;;21.80;43.30;;;;;;6326974;27;19976;-50
2022/03/11 03:26:29;;;;;;;;;;;22.20;43.60;;;;;;6330522;27;20045;-50
2022/03/11 03:29:31;;;;;;;;;;;22.10;43.40;;;;;;6332659;27;19929;-53
2022/03/11 03:32:32;;;;;;;;;;;22.10;43.30;;;;;;6328800;27;19931;-50
2022/03/11 03:35:34;;;;;;;;;;;21.70;43.30;;;;;;6328474;27;19927;-48
2022/03/11 03:38:40;;;;;;;;;;;22.30;43.50;;;;;;6332218;27;20955;-54
2022/03/11 03:41:42;;;;;;;;;;;22.30;43.20;;;;;;6333977;27;20049;-49
2022/03/11 03:44:44;;;;;;;;;;;22.60;43.80;;;;;;6325968;27;20233;-50
2022/03/11 03:47:45;;;;;;;;;;;22.20;43.60;;;;;;6324036;27;20344;-50
2022/03/11 03:50:46;;;;;;;;;;;22.10;43.60;;;;;;6324114;27;20805;-49
2022/03/11 03:53:48;;;;;;;;;;;22.30;43.80;;;;;;6324140;27;19934;-50
2022/03/11 03:56:50;;;;;;;;;;;21.60;43.40;;;;;;6326236;27;20049;-50
2022/03/11 03:59:51;;;;;;;;;;;21.90;43.50;;;;;;6321587;27;20023;-51
2022/03/11 04:02:52;;;;;;;;;;;22.00;43.50;;;;;;6302285;27;20069;-48
2022/03/11 04:05:54;;;;;;;;;;;22.30;43.10;;;;;;6328120;27;20211;-52
2022/03/11 04:08:57;;;;;;;;;;;22.20;43.70;;;;;;6317945;27;20719;-51
2022/03/11 04:11:58;;;;;;;;;;;22.30;43.60;;;;;;6301367;27;20316;-51
2022/03/11 04:15:00;;;;;;;;;;;21.80;43.30;;;;;;6320877;27;20404;-49
2022/03/11 04:18:01;;;;;;;;;;;22.20;43.70;;;;;;6319247;27;20119;-51
2022/03/11 04:21:03;;;;;;;;;;;22.30;43.70;;;;;;6299902;27;20157;-50
2022/03/11 04:24:12;;;;;;;;;;;22.00;43.60;;;;;;6316775;27;19984;-52
2022/03/11 04:27:14;;;;;;;;;;;22.10;43.50;;;;;;6324379;27;20588;-51
2022/03/11 04:30:16;;;;;;;;;;;22.10;43.60;;;;;;6329595;27;19938;-50
2022/03/11 04:33:17;;;;;;;;;;;22.10;43.20;;;;;;6325832;27;19927;-53
2022/03/11 04:36:18;;;;;;;;;;;21.70;43.60;;;;;;6319542;27;20062;-51
2022/03/11 04:39:21;;;;;;;;;;;22.00;43.70;;;;;;6304150;27;19939;-53
2022/03/11 04:42:23;;;;;;;;;;;22.50;43.80;;;;;;6327380;27;19931;-51
2022/03/11 04:45:24;;;;;;;;;;;21.80;43.30;;;;;;6331491;27;19935;-55
2022/03/11 04:48:26;;;;;;;;;;;21.80;43.40;;;;;;6330669;27;19931;-54
2022/03/11 04:51:27;;;;;;;;;;;22.50;43.80;;;;;;6334437;27;21284;-51
2022/03/11 04:54:29;;;;;;;;;;;22.20;43.70;;;;;;6331498;27;19978;-56
2022/03/11 04:57:31;;;;;;;;;;;21.80;43.50;;;;;;6333992;27;20947;-55
2022/03/11 05:00:32;;;;;;;;;;;21.80;43.50;;;;;;6331519;27;20140;-55
2022/03/11 05:03:34;;;;;;;;;;;22.00;43.50;;;;;;6332330;27;20000;-53
2022/03/11 05:06:35;;;;;;;;;;;22.20;43.80;;;;;;6330713;27;19958;-57
2022/03/11 05:09:37;;;;;;;;;;;22.10;43.80;;;;;;6329208;27;20881;-52
2022/03/11 05:12:39;;;;;;;;;;;22.30;43.70;;;;;;6314100;27;19927;-53
2022/03/11 05:15:40;;;;;;;;;;;21.80;43.40;;;;;;6329925;27;19937;-52
2022/03/11 05:18:41;;;;;;;;;;;21.80;43.70;;;;;;6327986;27;19923;-54
2022/03/11 05:21:43;;;;;;;;;;;21.50;43.50;;;;;;6325678;27;20013;-52
2022/03/11 05:24:44;;;;;;;;;;;21.80;43.60;;;;;;6320219;27;20087;-54
2022/03/11 05:27:46;;;;;;;;;;;22.10;43.70;;;;;;6324831;27;19923;-54
2022/03/11 05:30:48;;;;;;;;;;;21.70;43.50;;;;;;6323211;27;20003;-50
2022/03/11 05:33:51;;;;;;;;;;;21.70;43.50;;;;;;6321727;27;19934;-54
2022/03/11 05:36:52;;;;;;;;;;;21.80;43.60;;;;;;6321029;27;20284;-52
2022/03/11 05:39:54;;;;;;;;;;;21.70;43.50;;;;;;6301403;27;20923;-52
2022/03/11 05:42:56;;;;;;;;;;;22.40;44.00;;;;;;6324459;27;20038;-52
2022/03/11 05:45:57;;;;;;;;;;;22.20;43.70;;;;;;6323538;27;19967;-51
2022/03/11 05:48:58;;;;;;;;;;;21.70;43.60;;;;;;6322797;27;19986;-51
2022/03/11 05:52:00;;;;;;;;;;;21.80;43.70;;;;;;6323159;27;20054;-56
2022/03/11 05:55:01;;;;;;;;;;;21.80;43.70;;;;;;6315219;27;20302;-52
2022/03/11 05:58:03;;;;;;;;;;;22.10;44.50;;;;;;6315468;27;20442;-56
2022/03/11 06:01:04;;;;;;;;;;;22.20;43.80;;;;;;6315546;27;20923;-51
2022/03/11 06:04:06;;;;;;;;;;;22.30;43.90;;;;;;6319174;27;19923;-50
2022/03/11 06:07:09;;;;;;;;;;;22.00;43.60;;;;;;6323977;27;19998;-55
2022/03/11 06:10:11;;;;;;;;;;;21.70;43.70;;;;;;6325537;27;20606;-53
2022/03/11 06:13:14;;;;;;;;;;;22.10;43.90;;;;;;6324140;27;19967;-51
2022/03/11 06:16:15;;;;;;;;;;;21.90;43.80;;;;;;6323626;27;19927;-55
2022/03/11 06:19:16;;;;;;;;;;;21.70;43.70;;;;;;6324881;27;19923;-50
2022/03/11 06:22:18;;;;;;;;;;;22.10;44.00;;;;;;6327024;27;20038;-51
2022/03/11 06:25:19;;;;;;;;;;;22.00;43.90;;;;;;6324584;27;19931;-53
2022/03/11 06:28:21;;;;;;;;;;;21.80;43.70;;;;;;6319468;27;21001;-50
2022/03/11 06:31:23;;;;;;;;;;;21.70;43.60;;;;;;6323326;27;20886;-52
2022/03/11 06:34:24;;;;;;;;;;;22.10;43.90;;;;;;6318638;27;19929;-50
2022/03/11 06:37:33;;;;;;;;;;;22.10;44.00;;;;;;6317852;27;19958;-52
2022/03/11 06:40:34;;;;;;;;;;;22.10;43.80;;;;;;6312956;27;20133;-53
2022/03/11 06:43:36;;;;;;;;;;;22.30;44.00;;;;;;6319662;27;19930;-55
2022/03/11 06:46:37;;;;;;;;;;;21.70;43.70;;;;;;6313797;27;20935;-52
2022/03/11 06:49:39;;;;;;;;;;;21.90;44.00;;;;;;6299441;27;19923;-53
2022/03/11 06:52:40;;;;;;;;;;;21.80;43.90;;;;;;6325028;27;19931;-50
2022/03/11 06:55:42;;;;;;;;;;;21.70;43.60;;;;;;6300264;27;19966;-51
2022/03/11 06:58:44;;;;;;;;;;;22.00;44.10;;;;;;6320782;27;20516;-53
2022/03/11 07:01:45;;;;;;;;;;;21.60;43.80;;;;;;6318121;27;19932;-52
2022/03/11 07:04:47;;;;;;;;;;;21.90;43.80;;;;;;6314595;27;20061;-55
2022/03/11 07:07:48;;;;;;;;;;;22.20;44.80;;;;;;6313777;27;19966;-53
2022/03/11 07:10:51;;;;;;;;;;;21.80;44.00;;;;;;6307939;27;19992;-52
2022/03/11 07:13:53;;;;;;;;;;;22.30;44.20;;;;;;6312880;27;19962;-52
2022/03/11 07:16:56;;;;;;;;;;;22.00;44.10;;;;;;6315017;27;20301;-48
2022/03/11 07:19:57;;;;;;;;;;;22.00;44.00;;;;;;6303320;27;19938;-53
2022/03/11 07:23:00;;;;;;;;;;;22.00;44.00;;;;;;6311563;27;20086;-53
2022/03/11 07:26:03;;;;;;;;;;;21.90;44.00;;;;;;6297432;27;19931;-51
2022/03/11 07:29:05;;;;;;;;;;;21.90;43.70;;;;;;6304706;27;19931;-51
2022/03/11 07:32:09;;;;;;;;;;;21.80;43.90;;;;;;6299649;27;20125;-51
2022/03/11 07:35:12;;;;;;;;;;;21.90;43.90;;;;;;6294179;27;19927;-54
2022/03/11 07:38:14;;;;;;;;;;;22.10;44.30;;;;;;6261126;27;20058;-51
2022/03/11 07:41:15;;;;;;;;;;;21.80;43.80;;;;;;6285950;27;20143;-53
2022/03/11 07:44:17;;;;;;;;;;;22.30;44.20;;;;;;6276910;27;19937;-51
2022/03/11 07:47:27;;;;;;;;;;;22.00;44.00;;;;;;6280291;27;19990;-54
2022/03/11 07:50:28;;;;;;;;;;;21.80;44.00;;;;;;6261534;27;19931;-51
2022/03/11 07:53:30;;;;;;;;;;;22.10;43.80;;;;;;6254268;27;19931;-51
2022/03/11 07:56:32;;;;;;;;;;;21.80;43.90;;;;;;6242337;27;19931;-50
2022/03/11 07:59:34;;;;;;;;;;;21.90;44.00;;;;;;6217942;27;19931;-50
2022/03/11 08:02:36;;;;;;;;;;;22.00;43.90;;;;;;6176428;27;20049;-52
2022/03/11 08:05:37;;;;;;;;;;;21.90;43.90;;;;;;6209341;27;19952;-53
2022/03/11 08:08:39;;;;;;;;;;;21.70;43.90;;;;;;6198660;27;19931;-53
2022/03/11 08:11:40;;;;;;;;;;;22.00;43.60;;;;;;6182989;27;20020;-53
2022/03/11 08:14:43;;;;;;;;;;;21.80;43.80;;;;;;6193374;27;19971;-51
2022/03/11 08:17:45;;;;;;;;;;;22.10;43.70;;;;;;6211873;27;19971;-51
2022/03/11 08:20:46;;;;;;;;;;;22.30;43.90;;;;;;6186534;27;19932;-54
2022/03/11 08:23:48;;;;;;;;;;;22.20;44.00;;;;;;6180502;27;20061;-56
2022/03/11 08:26:49;;;;;;;;;;;21.90;43.70;;;;;;6217075;27;21227;-50
2022/03/11 08:29:51;;;;;;;;;;;22.10;43.70;;;;;;6201245;27;19984;-54
2022/03/11 08:32:53;;;;;;;;;;;22.40;43.90;;;;;;6208828;27;21761;-50
2022/03/11 08:35:54;;;;;;;;;;;22.30;43.10;;;;;;6223833;27;19937;-54
2022/03/11 08:39:10;;;;;;;;;;;22.40;43.80;;;;;;6222424;27;20074;-54
2022/03/11 08:42:12;;;;;;;;;;;22.70;44.20;;;;;;6211455;27;21460;-55
2022/03/11 08:45:14;;;;;;;;;;;22.50;43.90;;;;;;6210785;27;21354;-54
2022/03/11 08:48:19;;;;;;;;;;;22.50;43.70;;;;;;6216646;27;20677;-53
2022/03/11 08:51:26;;;;;;;;;;;22.30;43.90;;;;;;6221991;27;19930;-52
2022/03/11 08:54:27;;;;;;;;;;;21.90;43.70;;;;;;6226352;27;19932;-53
2022/03/11 08:57:29;;;;;;;;;;;22.20;43.60;;;;;;6213459;27;19958;-53
2022/03/11 09:00:35;;;;;;;;;;;22.00;43.60;;;;;;6227709;27;20465;-51
2022/03/11 09:03:36;;;;;;;;;;;22.70;43.90;;;;;;6204576;27;19937;-52
2022/03/11 09:06:39;;;;;;;;;;;22.40;43.80;;;;;;6211292;27;20671;-53
2022/03/11 09:09:41;;;;;;;;;;;22.10;43.30;;;;;;6207903;27;20062;-53
2022/03/11 09:12:45;;;;;;;;;;;22.30;43.80;;;;;;6174272;27;19931;-54
2022/03/11 09:15:47;;;;;;;;;;;22.40;43.90;;;;;;6222339;27;20088;-53
2022/03/11 09:18:49;;;;;;;;;;;22.50;43.90;;;;;;6213712;27;19938;-53
2022/03/11 09:21:51;;;;;;;;;;;22.40;43.00;;;;;;6247045;27;19931;-56
2022/03/11 09:24:52;;;;;;;;;;;22.00;43.60;;;;;;6244357;27;20970;-56
2022/03/11 09:27:53;;;;;;;;;;;22.30;43.80;;;;;;6241167;27;19931;-57
2022/03/11 09:30:55;;;;;;;;;;;22.30;43.80;;;;;;6242989;27;19935;-58
2022/03/11 09:33:57;;;;;;;;;;;22.80;44.00;;;;;;6212239;27;19931;-58
2022/03/11 09:36:58;;;;;;;;;;;22.40;43.90;;;;;;6229962;27;19975;-55
2022/03/11 09:40:01;;;;;;;;;;;22.80;43.90;;;;;;6215802;27;20008;-55
2022/03/11 09:43:02;;;;;;;;;;;22.40;43.70;;;;;;6231468;27;21265;-58
2022/03/11 09:46:05;;;;;;;;;;;22.90;44.00;;;;;;6220356;27;20892;-58
2022/03/11 09:49:08;;;;;;;;;;;23.10;44.00;;;;;;6224517;27;21525;-57
2022/03/11 09:52:09;;;;;;;;;;;22.40;43.70;;;;;;6223742;27;20087;-56
2022/03/11 09:55:11;;;;;;;;;;;22.40;43.70;;;;;;6208074;27;19931;-57
2022/03/11 09:58:13;;;;;;;;;;;22.40;43.50;;;;;;6210767;27;19931;-56
2022/03/11 10:01:15;;;;;;;;;;;22.60;43.50;;;;;;6230019;27;20179;-56
2022/03/11 10:04:16;;;;;;;;;;;22.20;43.60;;;;;;6200605;27;20027;-58
2022/03/11 10:07:22;;;;;;;;;;;22.60;43.70;;;;;;6231457;27;20057;-55
2022/03/11 10:10:23;;;;;;;;;;;22.50;43.60;;;;;;6238169;27;19931;-57
2022/03/11 10:13:40;;;;;;;;;;;22.50;43.70;;;;;;6219918;27;19934;-56
2022/03/11 10:16:44;;;;;;;;;;;22.70;43.80;;;;;;6215421;27;20046;-58
2022/03/11 10:19:52;;;;;;;;;;;22.30;43.40;;;;;;6202341;27;22867;-55
2022/03/11 10:22:55;;;;;;;;;;;22.60;43.60;;;;;;6211996;27;19931;-55
2022/03/11 10:25:56;;;;;;;;;;;22.50;43.80;;;;;;6231878;27;20140;-57
2022/03/11 10:29:00;;;;;;;;;;;22.30;43.60;;;;;;6226974;27;19931;-61
2022/03/11 10:32:06;;;;;;;;;;;22.70;41.00;;;;;;6193054;27;19931;-55
2022/03/11 10:35:11;;;;;;;;;;;22.80;43.60;;;;;;6206186;27;19931;-56
2022/03/11 10:38:13;;;;;;;;;;;22.70;43.60;;;;;;6178182;27;20057;-52
2022/03/11 10:41:17;;;;;;;;;;;22.50;43.60;;;;;;6181817;27;19938;-53
2022/03/11 10:44:19;;;;;;;;;;;22.60;43.70;;;;;;6187388;27;20050;-54
2022/03/11 10:47:22;;;;;;;;;;;23.10;43.90;;;;;;6157237;27;19938;-56
2022/03/11 10:50:27;;;;;;;;;;;22.40;43.60;;;;;;6201305;27;19931;-57
2022/03/11 10:53:37;;;;;;;;;;;22.60;43.50;;;;;;6186931;27;19935;-52
2022/03/11 10:56:39;;;;;;;;;;;22.70;43.70;;;;;;6178917;27;19967;-55
2022/03/11 10:59:44;;;;;;;;;;;22.80;43.60;;;;;;6160557;27;19938;-56
2022/03/11 11:02:46;;;;;;;;;;;22.20;41.10;;;;;;6173609;27;21061;-56
2022/03/11 11:05:48;;;;;;;;;;;23.00;43.70;;;;;;6171411;27;19931;-54
2022/03/11 11:08:50;;;;;;;;;;;22.70;43.30;;;;;;6193951;27;20605;-58
2022/03/11 11:11:52;;;;;;;;;;;22.60;43.10;;;;;;6206563;27;21612;-57
2022/03/11 11:14:53;;;;;;;;;;;22.50;43.20;;;;;;6208901;27;19938;-55
2022/03/11 11:17:55;;;;;;;;;;;23.00;43.50;;;;;;6179152;27;20986;-59
2022/03/11 11:20:58;;;;;;;;;;;22.80;43.60;;;;;;6222700;27;21700;-53
2022/03/11 11:23:59;;;;;;;;;;;23.10;43.80;;;;;;6186230;27;20055;-50
2022/03/11 11:27:02;;;;;;;;;;;22.70;43.80;;;;;;6221220;27;20053;-50
2022/03/11 11:30:03;;;;;;;;;;;22.50;43.60;;;;;;6205426;27;20015;-53
2022/03/11 11:33:06;;;;;;;;;;;22.70;43.60;;;;;;6213402;27;19989;-52
2022/03/11 11:36:08;;;;;;;;;;;22.60;43.50;;;;;;6243756;27;19946;-55
2022/03/11 11:39:12;;;;;;;;;;;23.00;43.90;;;;;;6261718;27;19931;-55
2022/03/11 11:42:13;;;;;;;;;;;22.80;43.60;;;;;;6259222;27;21899;-56
2022/03/11 11:45:18;;;;;;;;;;;22.90;43.70;;;;;;6231449;27;19938;-54
2022/03/11 11:48:52;;;;;;;;;;;23.00;43.70;;;;;;6248256;27;20003;-54
2022/03/11 11:51:56;;;;;;;;;;;22.90;43.60;;;;;;6233134;27;19931;-56
2022/03/11 11:55:12;;;;;;;;;;;23.10;43.80;;;;;;6232850;27;19938;-58
2022/03/11 11:58:21;;;;;;;;;;;23.10;43.60;;;;;;6258306;27;20934;-56
2022/03/11 12:01:38;;;;;;;;;;;23.30;44.30;;;;;;6270811;27;19938;-57
2022/03/11 12:04:39;;;;;;;;;;;23.00;43.50;;;;;;6245375;27;20398;-55
2022/03/11 12:07:45;;;;;;;;;;;23.00;43.60;;;;;;6247815;27;19938;-50
2022/03/11 12:10:51;;;;;;;;;;;22.80;43.40;;;;;;6254240;27;19931;-51
2022/03/11 12:14:00;;;;;;;;;;;23.20;43.80;;;;;;6243208;27;21742;-57
2022/03/11 12:17:03;;;;;;;;;;;23.10;43.40;;;;;;6264240;27;19937;-54
2022/03/11 12:20:19;;;;;;;;;;;23.40;43.70;;;;;;6247723;27;20003;-57
2022/03/11 12:23:21;;;;;;;;;;;23.30;43.60;;;;;;6223117;27;19931;-57
2022/03/11 12:26:34;;;;;;;;;;;23.30;43.60;;;;;;6205835;27;19938;-55
2022/03/11 12:29:36;;;;;;;;;;;23.10;43.50;;;;;;6248696;27;19931;-53
2022/03/11 12:32:38;;;;;;;;;;;23.00;43.30;;;;;;6235909;27;19931;-55
2022/03/11 12:35:40;;;;;;;;;;;23.20;43.40;;;;;;6215512;27;19938;-54
2022/03/11 12:38:43;;;;;;;;;;;23.30;43.60;;;;;;6243277;27;19931;-54
2022/03/11 12:41:45;;;;;;;;;;;22.60;43.20;;;;;;6240718;27;20046;-53
2022/03/11 12:44:47;;;;;;;;;;;22.90;43.50;;;;;;6244097;27;19932;-52
2022/03/11 12:47:49;;;;;;;;;;;22.80;43.30;;;;;;6236314;27;19932;-55
2022/03/11 12:50:51;;;;;;;;;;;22.90;43.30;;;;;;6237235;27;19970;-57
2022/03/11 12:53:53;;;;;;;;;;;23.20;43.40;;;;;;6236286;27;20063;-56
2022/03/11 12:56:57;;;;;;;;;;;23.60;43.70;;;;;;6214188;27;19931;-54
2022/03/11 12:59:58;;;;;;;;;;;23.10;43.30;;;;;;6214311;27;21270;-57
2022/03/11 13:03:00;;;;;;;;;;;23.40;43.60;;;;;;6184468;27;19931;-55
2022/03/11 13:06:03;;;;;;;;;;;22.90;43.40;;;;;;6203221;27;20515;-57
2022/03/11 13:09:06;;;;;;;;;;;23.20;43.60;;;;;;6168406;27;20008;-56
2022/03/11 13:12:22;;;;;;;;;;;23.20;43.40;;;;;;6193566;27;20065;-58
2022/03/11 13:15:26;;;;;;;;;;;23.70;43.70;;;;;;6184569;27;19936;-56
2022/03/11 13:18:28;;;;;;;;;;;23.40;43.50;;;;;;6189837;27;19938;-53
2022/03/11 13:21:29;;;;;;;;;;;23.20;43.40;;;;;;6186858;27;20160;-54
2022/03/11 13:24:31;;;;;;;;;;;23.10;43.30;;;;;;6196849;27;19927;-52
2022/03/11 13:27:37;;;;;;;;;;;23.90;43.70;;;;;;6195165;27;19975;-52
2022/03/11 13:30:40;;;;;;;;;;;23.40;44.00;;;;;;6173705;27;19937;-51
2022/03/11 13:33:41;;;;;;;;;;;23.50;43.00;;;;;;6178369;27;19937;-49
2022/03/11 13:36:44;;;;;;;;;;;23.50;43.40;;;;;;6158040;27;19931;-53
2022/03/11 13:40:05;;;;;;;;;;;23.00;43.30;;;;;;6180483;27;19983;-54
2022/03/11 13:43:07;;;;;;;;;;;23.00;43.20;;;;;;6199111;27;20421;-50
2022/03/11 13:46:08;;;;;;;;;;;23.50;43.50;;;;;;6186006;27;19975;-55
2022/03/11 13:49:11;;;;;;;;;;;23.10;43.00;;;;;;6183441;27;19932;-51
2022/03/11 13:52:13;;;;;;;;;;;23.50;41.20;;;;;;6181394;27;21171;-53
2022/03/11 13:55:17;;;;;;;;;;;23.40;43.40;;;;;;6197231;27;20051;-50
2022/03/11 13:58:19;;;;;;;;;;;23.50;43.30;;;;;;6186205;27;19931;-51
2022/03/11 14:01:21;;;;;;;;;;;23.30;43.30;;;;;;6173037;27;19931;-50
2022/03/11 14:04:22;;;;;;;;;;;23.60;43.30;;;;;;6187130;27;21571;-60
2022/03/11 14:07:24;;;;;;;;;;;23.40;43.00;;;;;;6200871;27;19970;-51
2022/03/11 14:10:27;;;;;;;;;;;23.40;43.40;;;;;;6187537;27;20011;-54
2022/03/11 14:13:31;;;;;;;;;;;23.40;43.30;;;;;;6184443;27;19931;-53
2022/03/11 14:16:32;;;;;;;;;;;23.10;43.10;;;;;;6174288;27;20371;-54
2022/03/11 14:19:34;;;;;;;;;;;23.40;43.40;;;;;;6193625;27;21827;-54
2022/03/11 14:22:36;;;;;;;;;;;23.70;43.50;;;;;;6196741;27;19938;-54
2022/03/11 14:25:38;;;;;;;;;;;23.40;43.30;;;;;;6198864;27;20965;-53
2022/03/11 14:28:39;;;;;;;;;;;23.60;43.30;;;;;;6212668;27;19989;-50
2022/03/11 14:31:43;;;;;;;;;;;23.10;43.80;;;;;;6206409;27;19942;-52
2022/03/11 14:34:45;;;;;;;;;;;23.00;43.20;;;;;;6206403;27;20008;-53
2022/03/11 14:37:46;;;;;;;;;;;23.50;43.60;;;;;;6210851;27;19931;-53
2022/03/11 14:40:50;;;;;;;;;;;23.30;43.30;;;;;;6201781;27;20054;-51
2022/03/11 14:43:52;;;;;;;;;;;23.50;43.40;;;;;;6196948;27;21636;-54
2022/03/11 14:46:55;;;;;;;;;;;23.40;43.30;;;;;;6190384;27;19931;-56
2022/03/11 14:49:57;;;;;;;;;;;23.10;43.20;;;;;;6195551;27;19931;-50
2022/03/11 14:52:58;;;;;;;;;;;23.20;43.10;;;;;;6169879;27;20049;-52
2022/03/11 14:56:00;;;;;;;;;;;23.40;43.20;;;;;;6173758;27;19999;-50
2022/03/11 14:59:02;;;;;;;;;;;23.40;43.20;;;;;;6209277;27;20069;-52
2022/03/11 15:02:04;;;;;;;;;;;23.30;43.10;;;;;;6161076;27;19931;-56
2022/03/11 15:05:06;;;;;;;;;;;23.20;43.00;;;;;;6194312;27;21463;-59
2022/03/11 15:08:08;;;;;;;;;;;23.30;43.20;;;;;;6179573;27;19969;-57
2022/03/11 15:11:10;;;;;;;;;;;23.50;43.40;;;;;;6184613;27;19970;-57
2022/03/11 15:14:11;;;;;;;;;;;23.30;43.80;;;;;;6206446;27;20937;-55
2022/03/11 15:17:13;;;;;;;;;;;23.80;43.60;;;;;;6203654;27;20038;-55
2022/03/11 15:20:14;;;;;;;;;;;23.40;43.30;;;;;;6209325;27;19931;-52
2022/03/11 15:23:16;;;;;;;;;;;23.70;43.50;;;;;;6212769;27;20035;-52
2022/03/11 15:26:18;;;;;;;;;;;23.40;43.30;;;;;;6224588;27;19931;-55
2022/03/11 15:29:19;;;;;;;;;;;23.40;43.20;;;;;;6200831;27;20447;-57
2022/03/11 15:32:20;;;;;;;;;;;23.80;43.50;;;;;;6182976;27;19931;-49
2022/03/11 15:35:23;;;;;;;;;;;23.10;43.20;;;;;;6188710;27;21048;-54
2022/03/11 15:38:25;;;;;;;;;;;23.40;43.20;;;;;;6198526;27;21069;-56
2022/03/11 15:41:27;;;;;;;;;;;23.60;43.20;;;;;;6195834;27;20020;-58
2022/03/11 15:44:28;;;;;;;;;;;23.40;43.20;;;;;;6222373;27;20077;-53
2022/03/11 15:47:30;;;;;;;;;;;23.20;43.30;;;;;;6213140;27;19937;-55
2022/03/11 15:50:33;;;;;;;;;;;23.30;43.30;;;;;;6222548;27;19934;-53
2022/03/11 15:53:34;;;;;;;;;;;23.50;43.50;;;;;;6236618;27;19932;-57
2022/03/11 15:56:38;;;;;;;;;;;23.30;43.20;;;;;;6227686;27;21013;-53
2022/03/11 15:59:40;;;;;;;;;;;23.50;43.40;;;;;;6229034;27;20059;-55
2022/03/11 16:03:01;;;;;;;;;;;23.60;43.40;;;;;;6201451;27;19931;-53
2022/03/11 16:06:03;;;;;;;;;;;23.30;43.30;;;;;;6225222;27;19938;-55
2022/03/11 16:09:04;;;;;;;;;;;23.20;43.20;;;;;;6227327;27;19956;-56
2022/03/11 16:12:07;;;;;;;;;;;23.20;43.20;;;;;;6223469;27;22337;-54
2022/03/11 16:15:12;;;;;;;;;;;23.30;43.30;;;;;;6239305;27;19935;-55
2022/03/11 16:18:13;;;;;;;;;;;23.10;43.20;;;;;;6218186;27;19939;-54
2022/03/11 16:21:16;;;;;;;;;;;23.50;43.20;;;;;;6233250;27;19939;-55
2022/03/11 16:24:17;;;;;;;;;;;23.60;43.10;;;;;;6213733;27;20012;-51
2022/03/11 16:27:20;;;;;;;;;;;23.30;43.20;;;;;;6239842;27;19931;-52
2022/03/11 16:30:21;;;;;;;;;;;23.20;43.10;;;;;;6246125;27;19967;-57
2022/03/11 16:33:25;;;;;;;;;;;23.50;43.30;;;;;;6235511;27;21672;-56
2022/03/11 16:36:27;;;;;;;;;;;23.50;43.40;;;;;;6251243;27;19938;-51
2022/03/11 16:39:28;;;;;;;;;;;23.50;43.30;;;;;;6228251;27;19931;-53
2022/03/11 16:42:30;;;;;;;;;;;23.40;43.30;;;;;;6256038;27;20173;-55
2022/03/11 16:45:31;;;;;;;;;;;23.60;43.30;;;;;;6246782;27;20393;-59
2022/03/11 16:48:33;;;;;;;;;;;23.50;43.30;;;;;;6253504;27;19931;-58
2022/03/11 16:51:34;;;;;;;;;;;23.40;43.00;;;;;;6265845;27;20146;-51
2022/03/11 16:54:36;;;;;;;;;;;23.70;43.60;;;;;;6250254;27;20222;-50
2022/03/11 16:57:38;;;;;;;;;;;23.50;43.30;;;;;;6230247;27;20590;-53
2022/03/11 17:00:40;;;;;;;;;;;23.80;43.60;;;;;;6260972;27;19938;-55
2022/03/11 17:03:41;;;;;;;;;;;23.60;43.60;;;;;;6247496;27;19931;-54
2022/03/11 17:06:43;;;;;;;;;;;23.30;43.20;;;;;;6265283;27;19934;-57
2022/03/11 17:09:44;;;;;;;;;;;23.30;43.30;;;;;;6266634;27;19931;-54
2022/03/11 17:12:46;;;;;;;;;;;23.50;43.30;;;;;;6257939;27;20093;-51
2022/03/11 17:15:50;;;;;;;;;;;23.40;43.50;;;;;;6267337;27;20228;-61
2022/03/11 17:18:51;;;;;;;;;;;23.60;43.40;;;;;;6273139;27;19931;-56
2022/03/11 17:21:54;;;;;;;;;;;23.20;43.10;;;;;;6279829;27;21668;-55
2022/03/11 17:24:55;;;;;;;;;;;23.50;43.40;;;;;;6280109;27;19931;-59
2022/03/11 17:27:57;;;;;;;;;;;23.60;43.60;;;;;;6290170;27;19934;-54
2022/03/11 17:30:58;;;;;;;;;;;23.10;43.20;;;;;;6267516;27;19931;-55
2022/03/11 17:33:59;;;;;;;;;;;23.50;43.50;;;;;;6267727;27;19930;-55
2022/03/11 17:37:02;;;;;;;;;;;23.50;43.50;;;;;;6277132;27;21044;-55
2022/03/11 17:40:04;;;;;;;;;;;23.40;43.40;;;;;;6279190;27;20091;-58